Latest Weather Observations for Kuitpo

IDS60801

Issued at 6:05 pm CST Sunday 20 April 2014 (issued every 30 minutes, with the page automatically refreshed every 10 minutes)

About weather observations | Map of weather stations | Latest weather observations for SA | Other Formats
Station Details ID: 023887 Name: KUITPO FOREST RESERVE Lat: -35.17 Lon: 138.68 Height: 365.0 m
Data from the previous 72 hours. | See also: Recent months at Kuitpo
Date/Time
CST
Temp
°C
App
Temp
°C
Dew
Point
Rel
Hum
%
Delta-T
°C
Wind Press
QNH
hPa
Press
MSL
hPa
Rain
since 9 am
mm
Dir
 
Spd
km/h
Gust
km/h
Spd
kts
Gust
kts
20/06:00pm 15.0 13.3 10.0 72 2.7 W 9 11 5 6 1017.2 1016.6 0.0
20/05:30pm 16.2 16.2 9.8 66 3.4 SW 0 0 0 0 1016.8 - 0.0
20/05:00pm 17.0 15.9 9.9 63 3.8 WSW 6 11 3 6 1016.7 - 0.0
20/04:30pm 17.5 15.5 10.1 62 4.0 WSW 11 17 6 9 1016.9 - 0.0
20/04:00pm 17.5 15.1 10.1 62 4.0 W 13 17 7 9 1016.9 - 0.0
20/03:30pm 18.3 15.8 9.6 57 4.7 W 13 20 7 11 1016.8 - 0.0
20/03:00pm 19.0 16.1 9.8 55 5.0 W 15 22 8 12 1016.7 1016.0 0.0
20/02:30pm 18.6 15.9 8.8 53 5.2 W 13 20 7 11 1016.6 - 0.0
20/02:00pm 19.2 16.7 9.7 54 5.1 W 13 20 7 11 1016.6 - 0.0
20/01:30pm 18.6 16.0 9.4 55 4.9 W 13 20 7 11 1016.7 - 0.0
20/01:00pm 18.5 15.7 8.5 52 5.3 WSW 13 22 7 12 1016.8 - 0.0
20/12:30pm 18.0 14.3 8.0 52 5.2 W 17 26 9 14 1017.2 - 0.0
20/12:00pm 17.5 14.5 7.5 52 5.1 WNW 13 20 7 11 1017.5 1016.9 0.0
20/11:30am 17.5 14.5 7.8 53 5.0 W 13 24 7 13 1017.7 - 0.0
20/11:00am 17.0 14.5 8.4 57 4.5 WNW 11 19 6 10 1017.8 - 0.0
20/10:30am 16.0 12.7 8.2 60 4.0 WNW 15 22 8 12 1017.9 - 0.0
20/10:00am 15.9 13.1 8.6 62 3.8 NW 13 20 7 11 1018.1 - 0.0
20/09:30am 15.3 13.1 9.2 67 3.2 NW 11 15 6 8 1018.2 - 0.0
20/09:00am 14.3 11.4 6.6 60 3.8 NW 11 20 6 11 1018.3 1017.7 0.0
20/08:30am 13.6 11.7 7.4 66 3.1 N 7 9 4 5 1017.8 - 0.0
20/08:00am 12.1 10.1 7.0 71 2.5 N 7 9 4 5 1017.8 - 0.0
20/07:30am 10.2 8.0 6.2 76 1.9 N 7 11 4 6 1017.3 - 0.0
20/07:00am 9.3 7.0 5.9 79 1.6 N 7 11 4 6 1017.1 - 0.0
20/06:30am 9.0 6.4 5.9 81 1.4 N 9 11 5 6 1016.9 - 0.0
20/06:00am 8.9 6.2 5.8 81 1.4 NNE 9 11 5 6 1016.7 1016.0 0.0
20/05:30am 9.1 6.1 6.2 82 1.4 NNE 11 15 6 8 1016.5 - 0.0
20/05:00am 9.1 6.5 6.0 81 1.5 NNE 9 11 5 6 1016.4 - 0.0
20/04:30am 9.3 6.7 6.0 80 1.5 NNE 9 11 5 6 1016.2 - 0.0
20/04:00am 9.6 7.0 6.3 80 1.6 NNE 9 11 5 6 1016.2 - 0.0
20/03:30am 10.2 9.3 6.2 76 1.9 CALM 0 0 0 0 1016.4 - 0.0
20/03:00am 10.8 9.6 6.4 74 2.1 NNE 2 6 1 3 1016.5 1015.8 0.0
20/02:30am 10.3 8.2 6.5 77 1.8 NNE 7 9 4 5 1016.2 - 0.0
20/02:00am 10.3 7.8 6.6 78 1.8 NNE 9 11 5 6 1016.7 - 0.0
20/01:30am 10.3 7.8 6.6 78 1.8 NNE 9 13 5 7 1016.7 - 0.0
20/01:00am 10.1 8.0 6.6 79 1.7 NE 7 9 4 5 1016.7 - 0.0
20/12:30am 9.8 6.6 6.9 82 1.4 NE 13 17 7 9 1016.8 - 0.0
20/12:00am 9.9 6.3 6.8 81 1.5 NE 15 19 8 10 1016.7 1016.0 0.0
 
Date/Time
CST
Temp
°C
App
Temp
°C
Dew
Point
Rel
Hum
%
Delta-T
°C
Wind Press
QNH
hPa
Press
MSL
hPa
Rain
since 9 am
mm
Dir
 
Spd
km/h
Gust
km/h
Spd
kts
Gust
kts
19/11:30pm 9.3 6.1 6.9 85 1.1 NE 13 17 7 9 1016.9 - 0.0
19/11:00pm 9.3 6.0 6.6 83 1.3 NE 13 17 7 9 1017.1 - 0.0
19/10:30pm 9.4 6.2 6.7 83 1.3 NE 13 17 7 9 1017.4 - 0.0
19/10:00pm 10.1 6.8 6.4 78 1.8 NE 13 15 7 8 1017.7 - 0.0
19/09:30pm 10.4 7.4 6.0 74 2.1 ENE 11 13 6 7 1017.7 - 0.0
19/09:00pm 11.2 8.1 5.7 69 2.6 ENE 11 13 6 7 1017.7 1017.1 0.0
19/08:30pm 11.3 8.4 6.4 72 2.4 ENE 11 15 6 8 1017.7 - 0.0
19/08:00pm 11.1 8.5 7.6 79 1.7 ENE 11 15 6 8 1017.7 - 0.0
19/07:30pm 11.3 9.0 7.6 78 1.8 E 9 11 5 6 1017.8 - 0.0
19/07:00pm 11.2 8.5 7.3 77 1.9 E 11 11 6 6 1017.8 - 0.0
19/06:30pm 11.3 9.3 7.2 76 2.0 ESE 7 9 4 5 1017.8 - 0.0
19/06:00pm 11.6 9.6 7.3 75 2.1 SW 7 9 4 5 1017.9 1017.3 0.0
19/05:30pm 12.4 10.1 7.3 71 2.5 WSW 9 13 5 7 1017.8 - 0.0
19/05:00pm 13.0 10.4 7.9 71 2.6 WSW 11 15 6 8 1017.7 - 0.0
19/04:30pm 13.2 10.6 7.9 70 2.7 WSW 11 19 6 10 1017.8 - 0.0
19/04:00pm 14.1 11.1 7.6 65 3.3 SW 13 19 7 10 1017.9 - 0.0
19/03:30pm 14.5 12.2 7.5 63 3.5 W 9 15 5 8 1018.0 - 0.0
19/03:00pm 14.4 12.1 7.5 63 3.5 WSW 9 17 5 9 1018.1 1017.5 0.0
19/02:30pm 14.7 12.6 6.8 59 3.9 W 7 11 4 6 1018.3 - 0.0
19/02:00pm 14.5 11.7 7.1 61 3.7 SW 11 20 6 11 1018.4 - 0.0
19/01:30pm 14.0 11.6 6.8 62 3.6 W 9 17 5 9 1018.8 - 0.0
19/01:00pm 14.2 12.2 6.1 58 4.0 W 6 11 3 6 1019.3 - 0.0
19/12:30pm 14.2 11.6 6.1 58 4.0 WNW 9 13 5 7 1019.9 - 0.0
19/12:00pm 14.6 13.3 5.9 56 4.2 E 2 7 1 4 1020.3 1019.7 0.0
19/11:30am 14.2 12.0 5.3 55 4.3 S 6 13 3 7 1020.6 - 0.0
19/11:00am 14.3 10.9 5.7 56 4.2 E 13 20 7 11 1020.8 - 0.0
19/10:30am 13.9 11.8 6.7 62 3.5 NE 7 15 4 8 1021.2 - 0.0
19/10:00am 12.8 9.4 5.9 63 3.3 ENE 13 20 7 11 1021.5 - 0.0
19/09:30am 12.4 10.1 7.5 72 2.4 NE 9 13 5 7 1021.8 - 0.0
19/09:00am 11.6 8.6 7.7 77 1.9 NE 13 19 7 10 1021.9 1021.4 0.2
19/08:30am 11.0 8.1 8.0 82 1.5 NE 13 19 7 10 1021.7 - 0.2
19/08:00am 10.4 7.9 8.0 85 1.2 NE 11 15 6 8 1021.6 - 0.2
19/07:30am 9.9 6.9 7.8 87 1.0 NE 13 17 7 9 1021.2 - 0.2
19/07:00am 9.3 6.0 7.9 91 0.7 NE 15 20 8 11 1021.0 - 0.2
19/06:30am 9.1 6.5 7.7 91 0.7 NE 11 13 6 7 1021.1 - 0.2
19/06:00am 9.2 7.2 7.3 88 0.9 NE 7 11 4 6 1021.0 1020.4 0.2
19/05:30am 10.3 8.4 7.7 84 1.3 ENE 7 9 4 5 1020.8 - 0.2
19/05:00am 10.1 7.9 7.7 85 1.2 ESE 9 13 5 7 1020.8 - 0.2
19/04:30am 9.7 7.5 7.8 88 0.9 SE 9 13 5 7 1020.8 - 0.2
19/04:00am 10.0 8.2 7.8 86 1.1 SE 7 9 4 5 1020.9 - 0.2
19/03:30am 10.1 8.1 7.2 82 1.4 ESE 7 9 4 5 1020.9 - 0.2
19/03:00am 9.8 7.8 7.2 84 1.3 ESE 7 9 4 5 1020.9 1020.3 0.2
19/02:30am 9.4 7.4 7.2 86 1.1 ESE 7 11 4 6 1021.1 - 0.2
19/02:00am 9.6 9.0 7.2 85 1.2 CALM 0 0 0 0 1021.3 - 0.2
19/01:30am 9.8 8.0 7.2 84 1.3 SE 6 9 3 5 1021.5 - 0.2
19/01:00am 9.9 7.6 7.3 84 1.3 ESE 9 11 5 6 1021.7 - 0.2
19/12:30am 9.8 7.8 6.9 82 1.4 S 7 9 4 5 1021.8 - 0.2
19/12:00am 10.1 8.0 6.8 80 1.6 SSE 7 9 4 5 1021.8 1021.3 0.2
 
Date/Time
CST
Temp
°C
App
Temp
°C
Dew
Point
Rel
Hum
%
Delta-T
°C
Wind Press
QNH
hPa
Press
MSL
hPa
Rain
since 9 am
mm
Dir
 
Spd
km/h
Gust
km/h
Spd
kts
Gust
kts
18/11:30pm 10.7 8.7 7.0 78 1.8 S 7 9 4 5 1022.0 - 0.2
18/11:00pm 10.8 8.8 6.9 77 1.9 SSE 7 11 4 6 1021.9 - 0.2
18/10:30pm 10.3 8.4 6.6 78 1.8 SSE 6 7 3 4 1022.2 - 0.2
18/10:00pm 10.4 8.3 6.7 78 1.8 SSE 7 9 4 5 1022.4 - 0.2
18/09:30pm 10.2 8.0 6.4 77 1.8 SSE 7 9 4 5 1022.5 - 0.2
18/09:00pm 10.2 8.0 6.2 76 1.9 SSE 7 9 4 5 1022.4 1021.8 0.2
18/08:30pm 10.6 8.4 6.4 75 2.0 S 7 9 4 5 1022.5 - 0.2
18/08:00pm 10.5 7.9 6.3 75 2.0 S 9 9 5 5 1022.3 - 0.2
18/07:30pm 10.9 8.7 6.1 72 2.3 S 7 11 4 6 1022.2 - 0.2
18/07:00pm 11.2 8.9 5.5 68 2.7 S 7 9 4 5 1021.9 - 0.2
18/06:30pm 11.3 8.8 5.0 65 2.9 S 7 11 4 6 1021.8 - 0.2
18/06:00pm 11.6 9.0 4.3 61 3.3 S 7 11 4 6 1021.7 1021.1 0.2
18/05:30pm 12.5 9.8 5.7 63 3.2 S 9 15 5 8 1021.7 - 0.2
18/05:00pm 13.3 9.9 5.9 61 3.6 S 13 20 7 11 1021.5 - 0.2
18/04:30pm 14.4 11.4 6.0 57 4.1 S 11 20 6 11 1021.3 - 0.2
18/04:00pm 14.2 10.6 6.8 61 3.7 S 15 26 8 14 1021.3 - 0.2
18/03:30pm 15.2 11.3 7.2 59 4.0 S 17 24 9 13 1021.0 - 0.2
18/03:00pm 15.0 11.1 7.1 59 3.9 S 17 26 9 14 1020.9 1020.3 0.2
18/02:30pm 15.9 11.5 6.6 54 4.6 S 19 30 10 16 1020.7 - 0.2
18/02:00pm 16.5 12.3 5.8 49 5.3 S 17 26 9 14 1020.6 - 0.2
18/01:30pm 16.5 12.4 6.1 50 5.2 SSW 17 26 9 14 1020.5 - 0.2
18/01:00pm 16.3 12.8 7.0 54 4.7 S 15 28 8 15 1020.7 - 0.2
18/12:30pm 16.4 12.5 7.3 55 4.6 S 17 33 9 18 1020.9 - 0.2
18/12:00pm 15.3 12.0 8.1 62 3.7 S 15 28 8 15 1021.1 1020.5 0.0
18/11:30am 15.9 12.5 9.1 64 3.6 S 17 28 9 15 1021.0 - 0.0
18/11:00am 16.0 13.0 10.7 71 2.9 S 17 26 9 14 1021.0 - 0.0
18/10:30am 14.9 12.3 10.7 76 2.3 S 15 28 8 15 1021.0 - 0.0
18/10:00am 15.1 12.2 10.9 76 2.3 SSW 17 26 9 14 1021.0 - 0.0
18/09:30am 14.5 11.4 11.6 83 1.6 SSW 19 28 10 15 1020.7 - 0.0
18/09:00am 14.1 11.4 12.8 92 0.7 SSW 19 28 10 15 1020.6 1020.0 1.4
18/08:30am 13.7 12.0 13.7 100 0.0 SSW 15 22 8 12 1020.4 - 1.4
18/08:00am 13.4 12.0 13.4 100 0.0 SSW 13 22 7 12 1019.8 - 1.4
18/07:30am 13.4 11.6 13.4 100 0.0 SW 15 26 8 14 1019.5 - 1.4
18/07:00am 14.2 11.9 14.2 100 0.0 W 19 35 10 19 1018.4 - 1.0
18/06:30am 14.5 12.7 14.5 100 0.0 W 17 26 9 14 1018.4 - 0.0
18/06:00am 14.4 12.1 14.2 99 0.1 W 19 28 10 15 1018.4 1017.8 0.0
18/05:30am 14.6 12.3 14.6 100 0.0 W 20 32 11 17 1018.4 - 0.0
18/05:00am 14.6 12.7 14.3 98 0.2 W 17 24 9 13 1018.1 - 0.0
18/04:30am 14.3 12.5 13.2 93 0.6 WSW 15 24 8 13 1018.1 - 0.0
18/04:00am 14.3 12.0 12.9 91 0.8 W 17 22 9 12 1017.9 - 0.0
18/03:30am 14.5 11.8 13.0 91 0.8 WSW 19 30 10 16 1018.0 - 0.0
18/03:00am 14.5 11.2 12.9 90 0.9 WSW 22 37 12 20 1018.0 1017.4 0.0
18/02:30am 14.7 11.8 13.9 95 0.5 W 22 33 12 18 1017.8 - 0.0
18/02:00am 15.0 12.3 14.5 97 0.3 W 22 35 12 19 1017.8 - 0.0
18/01:30am 15.2 12.4 14.4 95 0.5 W 22 37 12 20 1017.9 - 0.0
18/01:00am 15.3 13.4 14.2 93 0.6 WNW 17 30 9 16 1017.8 - 0.0
18/12:30am 14.9 12.7 13.4 91 0.8 WNW 17 26 9 14 1018.1 - 0.0
18/12:00am 14.8 12.7 12.3 85 1.4 WNW 15 24 8 13 1018.1 1017.5 0.0
 
Date/Time
CST
Temp
°C
App
Temp
°C
Dew
Point
Rel
Hum
%
Delta-T
°C
Wind Press
QNH
hPa
Press
MSL
hPa
Rain
since 9 am
mm
Dir
 
Spd
km/h
Gust
km/h
Spd
kts
Gust
kts
17/11:30pm 15.3 13.3 12.6 84 1.5 WNW 15 24 8 13 1018.3 - 0.0
17/11:00pm 15.6 12.6 12.4 81 1.8 WNW 20 30 11 16 1018.7 - 0.0
17/10:30pm 15.8 12.6 11.4 75 2.4 WNW 19 28 10 15 1018.9 - 0.0
17/10:00pm 16.4 13.0 11.3 72 2.8 NW 20 28 11 15 1019.0 - 0.0
17/09:30pm 16.6 13.4 11.3 71 2.9 NW 19 28 10 15 1019.1 - 0.0
17/09:00pm 16.5 14.0 11.2 71 2.9 NW 15 22 8 12 1019.0 1018.4 0.0
17/08:30pm 16.6 14.5 11.3 71 2.9 NW 13 17 7 9 1018.9 - 0.0
17/08:00pm 16.5 14.4 11.2 71 2.9 NNW 13 17 7 9 1018.8 - 0.0
17/07:30pm 16.0 14.7 11.2 73 2.6 N 9 11 5 6 1018.6 - 0.0
17/07:00pm 16.5 15.2 11.2 71 2.9 NNW 9 13 5 7 1018.7 - 0.0
17/06:30pm 16.8 15.5 11.1 69 3.1 NNW 9 13 5 7 1018.6 - 0.0

Other Formats:

Comma delimited format used in spreadsheet applications
http://www.bom.gov.au/fwo/IDS60801/IDS60801.94683.axf

JavaScript Object Notation format (JSON) in row-major order
http://www.bom.gov.au/fwo/IDS60801/IDS60801.94683.json